Time;durP1;ratioP1;P1;durP2;ratioP2;P2;SDS_P1;SDS_P2;PMS_P1;PMS_P2;Temp;Humidity;BMP_temperature;BMP_pressure;BME280_temperature;BME280_humidity;BME280_pressure;Samples;Min_cycle;Max_cycle;Signal;HPM_P1;HPM_P2
2022/12/25 00:00:11;;;;;;;21.98;16.80;;;;;;;;;;5055987;28;20483;-82
2022/12/25 00:02:38;;;;;;;22.20;18.55;;;;;;;;;;5073468;28;20383;-82
2022/12/25 00:05:04;;;;;;;26.92;19.73;;;;;;;;;;5073626;28;20498;-84
2022/12/25 00:07:31;;;;;;;24.25;18.88;;;;;;;;;;5055387;28;20036;-84
2022/12/25 00:09:57;;;;;;;23.63;18.95;;;;;;;;;;5073501;28;20082;-82
2022/12/25 00:12:23;;;;;;;27.63;21.88;;;;;;;;;;5055437;28;20115;-83
2022/12/25 00:14:49;;;;;;;24.27;19.85;;;;;;;;;;5073332;28;20029;-85
2022/12/25 00:17:15;;;;;;;24.13;19.88;;;;;;;;;;5073443;28;20036;-83
2022/12/25 00:19:42;;;;;;;25.38;20.27;;;;;;;;;;5072952;28;20722;-84
2022/12/25 00:22:08;;;;;;;24.75;19.70;;;;;;;;;;5055455;28;20039;-84
2022/12/25 00:24:34;;;;;;;25.17;21.17;;;;;;;;;;5073215;28;20476;-83
2022/12/25 00:27:00;;;;;;;23.33;19.70;;;;;;;;;;5055508;28;20021;-83
2022/12/25 00:29:26;;;;;;;24.63;20.15;;;;;;;;;;5073244;28;20474;-84
2022/12/25 00:31:52;;;;;;;25.55;20.20;;;;;;;;;;5073030;28;20154;-83
2022/12/25 00:34:18;;;;;;;29.35;21.52;;;;;;;;;;5055258;28;20028;-82
2022/12/25 00:36:44;;;;;;;25.00;19.65;;;;;;;;;;5072814;28;20044;-84
2022/12/25 00:39:11;;;;;;;27.10;20.58;;;;;;;;;;5055252;28;20115;-83
2022/12/25 00:44:21;;;;;;;23.08;18.63;;;;;;;;;;5073396;28;20040;-83
2022/12/25 00:46:47;;;;;;;24.48;18.10;;;;;;;;;;5055206;28;20024;-83
2022/12/25 00:49:13;;;;;;;21.50;18.33;;;;;;;;;;5073073;28;20098;-84
2022/12/25 00:51:39;;;;;;;20.55;17.67;;;;;;;;;;5072970;28;20494;-84
2022/12/25 00:54:06;;;;;;;22.90;18.42;;;;;;;;;;5055076;28;20116;-84
2022/12/25 00:56:32;;;;;;;21.48;15.65;;;;;;;;;;5072778;28;20467;-83
2022/12/25 00:58:58;;;;;;;22.65;18.27;;;;;;;;;;5073066;28;20024;-84
2022/12/25 01:01:24;;;;;;;22.77;18.35;;;;;;;;;;5054992;28;20486;-83
2022/12/25 01:03:50;;;;;;;26.20;19.27;;;;;;;;;;5072850;28;20017;-82
2022/12/25 01:06:16;;;;;;;23.45;19.02;;;;;;;;;;5055007;28;20107;-84
2022/12/25 01:11:27;;;;;;;29.48;21.45;;;;;;;;;;5072985;28;20075;-84
2022/12/25 01:13:54;;;;;;;29.15;20.75;;;;;;;;;;5072766;28;20029;-84
2022/12/25 01:16:20;;;;;;;25.38;19.67;;;;;;;;;;5072464;28;20104;-83
2022/12/25 01:18:46;;;;;;;26.70;19.38;;;;;;;;;;5055000;28;20032;-85
2022/12/25 01:21:18;;;;;;;28.05;21.80;;;;;;;;;;5054534;28;20021;-83
2022/12/25 01:23:45;;;;;;;31.38;23.05;;;;;;;;;;5054470;28;20051;-83
2022/12/25 01:26:11;;;;;;;26.20;20.48;;;;;;;;;;5054498;28;20028;-84
2022/12/25 01:28:38;;;;;;;29.20;24.00;;;;;;;;;;5072328;28;20021;-84
2022/12/25 01:31:04;;;;;;;37.17;27.45;;;;;;;;;;5072311;28;20436;-84
2022/12/25 01:33:31;;;;;;;29.65;23.67;;;;;;;;;;5071733;28;20021;-83
2022/12/25 01:35:57;;;;;;;32.10;23.27;;;;;;;;;;5072244;28;20025;-83
2022/12/25 01:38:23;;;;;;;38.38;29.90;;;;;;;;;;5072337;28;20027;-83
2022/12/25 01:40:49;;;;;;;28.58;22.77;;;;;;;;;;5054617;28;20413;-84
2022/12/25 01:43:34;;;;;;;30.38;23.92;;;;;;;;;;5054414;28;20021;-83
2022/12/25 01:46:02;;;;;;;;;;;;;;;;;;5072861;28;20021;-82
2022/12/25 01:48:33;;;;;;;28.73;20.55;;;;;;;;;;5072005;28;20065;-81
2022/12/25 01:51:06;;;;;;;22.60;16.75;;;;;;;;;;5054325;28;20552;-82
2022/12/25 01:53:32;;;;;;;20.60;16.00;;;;;;;;;;5072314;28;20021;-84
2022/12/25 01:56:01;;;;;;;22.85;17.02;;;;;;;;;;5072157;28;20025;-84
2022/12/25 01:58:27;;;;;;;21.08;16.95;;;;;;;;;;5054271;28;20029;-84
2022/12/25 02:00:54;;;;;;;22.67;16.23;;;;;;;;;;5054134;28;20025;-84
2022/12/25 02:03:21;;;;;;;23.33;17.13;;;;;;;;;;5072120;28;20091;-83
2022/12/25 02:05:47;;;;;;;24.83;18.17;;;;;;;;;;5072062;28;20021;-84
2022/12/25 02:08:15;;;;;;;26.60;18.75;;;;;;;;;;5054187;28;20456;-84
2022/12/25 02:10:43;;;;;;;29.20;20.77;;;;;;;;;;5072072;28;20537;-83
2022/12/25 02:13:10;;;;;;;31.48;25.95;;;;;;;;;;5054075;28;20077;-83
2022/12/25 02:15:55;;;;;;;26.95;22.45;;;;;;;;;;5054143;28;20474;-83
2022/12/25 02:18:21;;;;;;;;;;;;;;;;;;5054677;28;20139;-83
2022/12/25 02:20:47;;;;;;;25.77;18.77;;;;;;;;;;5071965;28;19944;-81
2022/12/25 02:23:31;;;;;;;19.25;16.02;;;;;;;;;;5072137;28;20021;-83
2022/12/25 02:26:09;;;;;;;18.52;15.52;;;;;;;;;;5054010;28;20025;-83
2022/12/25 02:28:35;;;;;;;19.10;17.10;;;;;;;;;;5071768;28;20024;-84
2022/12/25 02:31:08;;;;;;;22.00;16.23;;;;;;;;;;5054091;28;20498;-84
2022/12/25 02:36:23;;;;;;;20.83;16.77;;;;;;;;;;5071732;28;20031;-83
2022/12/25 02:41:38;;;;;;;22.92;18.73;;;;;;;;;;5072177;28;20040;-82
2022/12/25 03:11:54;;;;;;;39.92;29.65;;;;;;;;;;5075001;28;20044;-83
2022/12/25 03:17:05;;;;;;;39.05;31.20;;;;;;;;;;5074495;28;20501;-82
2022/12/25 03:28:06;;;;;;;35.38;25.73;;;;;;;;;;5074457;28;20063;-83
2022/12/25 04:38:00;;;;;;;41.10;29.67;;;;;;;;;;5072913;28;20075;-83
2022/12/25 04:40:26;;;;;;;41.20;32.60;;;;;;;;;;5073108;28;20048;-82
2022/12/25 04:42:52;;;;;;;50.33;36.67;;;;;;;;;;5072933;28;20042;-82
2022/12/25 04:45:18;;;;;;;51.45;39.90;;;;;;;;;;5072345;28;20433;-82
2022/12/25 04:47:44;;;;;;;60.38;46.33;;;;;;;;;;5072702;28;20103;-82
2022/12/25 04:50:10;;;;;;;71.47;54.40;;;;;;;;;;5072743;28;20028;-82
2022/12/25 04:52:37;;;;;;;53.08;39.78;;;;;;;;;;5072967;28;20086;-83
2022/12/25 04:55:04;;;;;;;49.90;38.50;;;;;;;;;;5054404;28;20067;-82
2022/12/25 04:57:30;;;;;;;56.15;42.22;;;;;;;;;;5072204;28;20108;-81
2022/12/25 04:59:56;;;;;;;36.75;29.08;;;;;;;;;;5054823;28;20062;-86
2022/12/25 05:02:22;;;;;;;35.67;26.77;;;;;;;;;;5072934;28;20025;-83
2022/12/25 05:04:49;;;;;;;32.40;24.13;;;;;;;;;;5072789;28;20124;-84
2022/12/25 05:07:15;;;;;;;30.77;22.50;;;;;;;;;;5071515;28;20020;-85
2022/12/25 05:09:41;;;;;;;34.20;25.90;;;;;;;;;;5072690;28;20403;-81
2022/12/25 05:12:10;;;;;;;36.67;30.20;;;;;;;;;;5071760;28;20099;-85
2022/12/25 05:14:38;;;;;;;27.48;23.23;;;;;;;;;;5054732;28;20028;-82
2022/12/25 05:17:04;;;;;;;23.17;19.05;;;;;;;;;;5072059;28;20036;-81
2022/12/25 05:19:30;;;;;;;21.98;17.63;;;;;;;;;;5054117;28;20127;-84
2022/12/25 05:21:56;;;;;;;22.23;16.45;;;;;;;;;;5072405;28;20465;-82
2022/12/25 05:24:25;;;;;;;17.70;15.30;;;;;;;;;;5072364;28;20021;-82
2022/12/25 05:26:51;;;;;;;18.92;16.33;;;;;;;;;;5072200;28;20024;-81
2022/12/25 05:29:17;;;;;;;41.53;28.70;;;;;;;;;;5072473;28;20158;-81
2022/12/25 05:31:43;;;;;;;37.30;29.02;;;;;;;;;;5054706;28;20475;-83
2022/12/25 05:34:09;;;;;;;34.03;24.52;;;;;;;;;;5054472;28;20485;-81
2022/12/25 05:36:35;;;;;;;29.58;24.17;;;;;;;;;;5074199;28;20028;-81
2022/12/25 05:39:01;;;;;;;28.73;23.45;;;;;;;;;;5072369;28;20078;-83
2022/12/25 05:41:27;;;;;;;30.30;23.95;;;;;;;;;;5072324;28;20382;-83
2022/12/25 05:43:53;;;;;;;26.85;21.63;;;;;;;;;;5072127;28;20025;-84
2022/12/25 05:46:19;;;;;;;28.08;22.05;;;;;;;;;;5072118;28;20033;-81
2022/12/25 05:48:45;;;;;;;27.23;21.15;;;;;;;;;;5072164;28;20407;-83
2022/12/25 05:51:12;;;;;;;26.30;22.23;;;;;;;;;;5072268;28;20052;-84
2022/12/25 05:53:39;;;;;;;26.50;20.42;;;;;;;;;;5072304;28;20035;-85
2022/12/25 05:56:06;;;;;;;23.92;20.27;;;;;;;;;;5072336;28;20055;-85
2022/12/25 05:58:33;;;;;;;23.25;18.05;;;;;;;;;;5054370;28;20024;-82
2022/12/25 06:00:59;;;;;;;22.20;17.60;;;;;;;;;;5072271;28;20020;-81
2022/12/25 06:03:26;;;;;;;23.40;18.27;;;;;;;;;;5054231;28;20383;-81
2022/12/25 06:05:52;;;;;;;21.40;17.80;;;;;;;;;;5072193;28;20012;-82
2022/12/25 06:08:18;;;;;;;24.17;18.17;;;;;;;;;;5054074;28;20115;-82
2022/12/25 06:10:44;;;;;;;23.38;18.08;;;;;;;;;;5072108;28;20082;-83
2022/12/25 06:13:11;;;;;;;24.50;19.27;;;;;;;;;;5071982;28;20040;-83
2022/12/25 06:15:41;;;;;;;30.67;21.80;;;;;;;;;;5072154;28;20020;-82
2022/12/25 06:18:07;;;;;;;34.33;25.25;;;;;;;;;;5072480;28;20129;-81
2022/12/25 06:20:33;;;;;;;35.42;25.98;;;;;;;;;;5075679;28;20021;-83
2022/12/25 06:23:00;;;;;;;29.00;22.38;;;;;;;;;;5075907;28;20020;-83
2022/12/25 06:25:26;;;;;;;30.65;24.80;;;;;;;;;;5075493;28;20025;-83
2022/12/25 06:27:52;;;;;;;26.45;21.60;;;;;;;;;;5075703;28;20052;-83
2022/12/25 06:30:18;;;;;;;35.17;25.52;;;;;;;;;;5075597;28;20016;-84
2022/12/25 06:32:44;;;;;;;40.15;28.38;;;;;;;;;;5075775;28;20100;-81
2022/12/25 06:35:10;;;;;;;28.77;24.50;;;;;;;;;;5075162;28;20031;-84
2022/12/25 06:37:36;;;;;;;22.30;18.45;;;;;;;;;;5075092;28;20039;-84
2022/12/25 06:40:02;;;;;;;26.85;19.98;;;;;;;;;;5056613;28;20021;-84
2022/12/25 06:42:28;;;;;;;30.70;24.40;;;;;;;;;;5056197;28;20447;-85
2022/12/25 06:44:54;;;;;;;44.63;33.30;;;;;;;;;;5074920;28;20025;-82
2022/12/25 06:47:20;;;;;;;115.40;71.97;;;;;;;;;;5075242;28;20024;-84
2022/12/25 06:49:46;;;;;;;38.83;29.17;;;;;;;;;;5074993;28;20045;-81
2022/12/25 06:52:12;;;;;;;36.95;28.77;;;;;;;;;;5075220;28;20557;-85
2022/12/25 06:54:39;;;;;;;32.55;25.85;;;;;;;;;;5074992;28;20024;-84
2022/12/25 06:57:05;;;;;;;31.58;26.33;;;;;;;;;;5075065;28;20111;-82
2022/12/25 06:59:31;;;;;;;29.48;23.05;;;;;;;;;;5073804;28;20612;-83
2022/12/25 07:01:57;;;;;;;27.55;23.48;;;;;;;;;;5076896;28;20013;-83
2022/12/25 07:04:24;;;;;;;27.42;21.73;;;;;;;;;;5077797;28;20017;-83
2022/12/25 07:06:51;;;;;;;32.72;25.65;;;;;;;;;;5074778;28;20025;-81
2022/12/25 07:09:17;;;;;;;39.00;28.75;;;;;;;;;;5074998;28;20029;-81
2022/12/25 07:11:43;;;;;;;56.08;40.67;;;;;;;;;;5074641;28;20063;-85
2022/12/25 07:14:15;;;;;;;55.42;41.53;;;;;;;;;;5074864;28;20032;-84
2022/12/25 07:16:41;;;;;;;53.40;38.70;;;;;;;;;;5074611;28;20090;-82
2022/12/25 07:19:08;;;;;;;44.70;34.47;;;;;;;;;;5074738;28;20539;-83
2022/12/25 07:21:34;;;;;;;50.13;38.10;;;;;;;;;;5067905;28;20519;-81
2022/12/25 07:24:00;;;;;;;51.05;37.72;;;;;;;;;;5066520;28;20209;-85
2022/12/25 07:26:27;;;;;;;49.42;34.78;;;;;;;;;;5070113;28;20092;-85
2022/12/25 07:28:54;;;;;;;49.75;36.33;;;;;;;;;;5062855;28;20427;-81
2022/12/25 07:31:20;;;;;;;46.17;34.63;;;;;;;;;;5053622;28;20056;-83
2022/12/25 07:33:47;;;;;;;42.97;33.17;;;;;;;;;;5054382;28;20025;-82
2022/12/25 07:36:13;;;;;;;47.30;33.97;;;;;;;;;;5053212;28;20100;-85
2022/12/25 07:38:40;;;;;;;49.95;34.33;;;;;;;;;;5052993;28;20383;-83
2022/12/25 07:41:10;;;;;;;49.45;37.03;;;;;;;;;;5053063;28;20439;-84
2022/12/25 07:43:36;;;;;;;43.45;33.53;;;;;;;;;;5055374;28;20021;-83
2022/12/25 07:46:05;;;;;;;42.90;32.53;;;;;;;;;;5062707;28;20750;-83
2022/12/25 07:48:31;;;;;;;40.92;31.52;;;;;;;;;;5063550;28;20052;-84
2022/12/25 07:50:59;;;;;;;40.95;29.90;;;;;;;;;;5055785;28;20130;-82
2022/12/25 07:53:25;;;;;;;40.22;30.23;;;;;;;;;;5074283;28;20024;-82
2022/12/25 07:56:10;;;;;;;51.10;36.30;;;;;;;;;;5074129;28;20029;-84
2022/12/25 07:58:36;;;;;;;51.67;36.50;;;;;;;;;;5074149;28;20097;-84
2022/12/25 08:01:04;;;;;;;43.22;31.95;;;;;;;;;;5073969;28;20082;-84
2022/12/25 08:03:31;;;;;;;42.13;31.35;;;;;;;;;;5074041;28;20032;-84
2022/12/25 08:06:07;;;;;;;42.75;30.33;;;;;;;;;;5052425;28;20017;-83
2022/12/25 08:08:33;;;;;;;31.02;23.33;;;;;;;;;;5050148;28;20472;-82
2022/12/25 08:11:00;;;;;;;32.92;24.98;;;;;;;;;;5073539;28;20034;-84
2022/12/25 08:13:26;;;;;;;28.65;23.25;;;;;;;;;;5073410;28;20021;-81
2022/12/25 08:15:59;;;;;;;28.70;21.63;;;;;;;;;;5055719;28;20060;-81
2022/12/25 08:18:25;;;;;;;25.45;18.75;;;;;;;;;;5073534;28;20032;-83
2022/12/25 08:20:51;;;;;;;20.52;16.15;;;;;;;;;;5073820;28;20077;-84
2022/12/25 08:23:17;;;;;;;23.05;16.15;;;;;;;;;;5073422;28;20107;-83
2022/12/25 08:25:43;;;;;;;19.30;14.73;;;;;;;;;;5073607;28;20034;-84
2022/12/25 08:28:09;;;;;;;20.88;14.73;;;;;;;;;;5055112;28;20033;-82
2022/12/25 08:30:38;;;;;;;18.23;14.43;;;;;;;;;;5073460;28;20487;-83
2022/12/25 08:33:04;;;;;;;19.13;15.73;;;;;;;;;;5073318;28;20106;-82
2022/12/25 08:35:32;;;;;;;23.48;17.05;;;;;;;;;;5072969;28;20028;-84
2022/12/25 08:37:58;;;;;;;30.05;22.23;;;;;;;;;;5072876;28;20032;-81
2022/12/25 08:40:24;;;;;;;40.90;30.75;;;;;;;;;;5072802;28;20063;-83
2022/12/25 08:42:50;;;;;;;39.95;31.45;;;;;;;;;;5073048;28;20522;-83
2022/12/25 08:45:17;;;;;;;33.63;26.98;;;;;;;;;;5072797;28;20020;-84
2022/12/25 08:47:43;;;;;;;31.60;24.50;;;;;;;;;;5054922;28;20052;-83
2022/12/25 08:50:09;;;;;;;28.42;20.40;;;;;;;;;;5072923;28;20024;-82
2022/12/25 08:52:35;;;;;;;24.88;18.10;;;;;;;;;;5072623;28;20472;-84
2022/12/25 08:55:01;;;;;;;20.45;16.13;;;;;;;;;;5072956;28;20031;-85
2022/12/25 08:57:28;;;;;;;23.23;16.92;;;;;;;;;;5072360;28;20029;-84
2022/12/25 08:59:54;;;;;;;18.13;16.20;;;;;;;;;;5058343;28;20155;-82
2022/12/25 09:02:20;;;;;;;17.58;14.07;;;;;;;;;;5052614;28;20017;-84
2022/12/25 09:04:46;;;;;;;20.63;16.88;;;;;;;;;;5055222;28;20017;-84
2022/12/25 09:07:12;;;;;;;23.73;18.92;;;;;;;;;;5053204;28;20021;-85
2022/12/25 09:09:38;;;;;;;25.13;20.13;;;;;;;;;;5072558;28;20050;-84
2022/12/25 09:12:04;;;;;;;30.42;23.52;;;;;;;;;;5054748;28;20035;-86
2022/12/25 09:14:30;;;;;;;29.00;22.15;;;;;;;;;;5047939;28;20032;-83
2022/12/25 09:16:57;;;;;;;27.05;21.88;;;;;;;;;;5052488;28;20045;-84
2022/12/25 09:19:23;;;;;;;33.95;28.15;;;;;;;;;;5052450;28;20075;-82
2022/12/25 09:21:49;;;;;;;42.33;34.08;;;;;;;;;;5052409;28;20059;-85
2022/12/25 09:24:15;;;;;;;56.20;43.90;;;;;;;;;;5052574;28;20029;-83
2022/12/25 09:26:41;;;;;;;36.80;29.92;;;;;;;;;;5052443;28;20021;-82
2022/12/25 09:29:07;;;;;;;42.17;32.95;;;;;;;;;;5052446;28;20082;-85
2022/12/25 09:31:33;;;;;;;50.05;37.90;;;;;;;;;;5052335;28;20028;-81
2022/12/25 09:33:59;;;;;;;47.50;37.53;;;;;;;;;;5052513;28;20490;-84
2022/12/25 09:36:25;;;;;;;51.50;41.78;;;;;;;;;;5034470;28;20017;-85
2022/12/25 09:38:52;;;;;;;51.13;37.35;;;;;;;;;;5052276;28;20029;-83
2022/12/25 09:41:37;;;;;;;51.38;38.67;;;;;;;;;;5052406;28;20025;-82
2022/12/25 09:44:03;;;;;;;;;;;;;;;;;;5035025;28;20032;-83
2022/12/25 09:46:31;;;;;;;16.05;11.02;;;;;;;;;;5052218;28;20397;-84
2022/12/25 09:49:17;;;;;;;14.80;9.80;;;;;;;;;;5052040;28;20045;-86
2022/12/25 09:51:45;;;;;;;8.32;5.15;;;;;;;;;;5056231;28;20029;-81
2022/12/25 09:54:18;;;;;;;10.68;7.43;;;;;;;;;;5055132;28;20017;-84
2022/12/25 09:56:44;;;;;;;16.10;11.55;;;;;;;;;;5056165;28;20119;-85
2022/12/25 09:59:23;;;;;;;8.63;7.10;;;;;;;;;;5067727;28;20029;-87
2022/12/25 10:01:52;;;;;;;9.43;7.13;;;;;;;;;;5076327;28;20020;-84
2022/12/25 10:04:37;;;;;;;11.82;7.35;;;;;;;;;;5074552;28;20391;-86
2022/12/25 10:07:26;;;;;;;13.63;8.13;;;;;;;;;;5074824;28;20064;-80
2022/12/25 10:10:11;;;;;;;11.07;7.18;;;;;;;;;;5065374;28;20037;-85
2022/12/25 10:12:56;;;;;;;11.18;7.72;;;;;;;;;;5076024;28;20032;-86
2022/12/25 10:15:22;;;;;;;;;;;;;;;;;;5076154;28;20021;-82
2022/12/25 10:17:57;;;;;;;11.70;8.05;;;;;;;;;;5075618;28;19913;-88
2022/12/25 10:20:23;;;;;;;11.88;7.50;;;;;;;;;;5075748;28;20078;-85
2022/12/25 10:22:59;;;;;;;14.45;11.15;;;;;;;;;;5075564;28;20021;-86
2022/12/25 10:25:26;;;;;;;11.05;7.93;;;;;;;;;;5075284;28;20483;-83
2022/12/25 10:27:57;;;;;;;9.77;7.45;;;;;;;;;;5075572;28;20051;-82
2022/12/25 10:30:34;;;;;;;8.60;6.03;;;;;;;;;;5069775;28;20033;-86
2022/12/25 10:33:00;;;;;;;9.93;7.55;;;;;;;;;;5055785;28;20029;-84
2022/12/25 10:35:27;;;;;;;10.90;8.65;;;;;;;;;;5055359;28;20534;-84
2022/12/25 10:38:01;;;;;;;10.40;7.90;;;;;;;;;;5055484;28;20412;-86
2022/12/25 10:40:30;;;;;;;14.60;11.10;;;;;;;;;;5054081;28;20446;-83
2022/12/25 10:43:00;;;;;;;12.25;8.15;;;;;;;;;;5062887;28;20289;-84
2022/12/25 10:45:26;;;;;;;11.65;7.22;;;;;;;;;;5063118;28;20421;-84
2022/12/25 10:48:01;;;;;;;9.45;5.90;;;;;;;;;;5055487;28;20032;-84
2022/12/25 10:50:27;;;;;;;10.18;7.63;;;;;;;;;;5055047;28;20036;-85
2022/12/25 10:52:54;;;;;;;12.60;8.70;;;;;;;;;;5065487;28;20491;-83
2022/12/25 10:55:20;;;;;;;11.52;7.82;;;;;;;;;;5063190;28;20021;-86
2022/12/25 10:57:46;;;;;;;11.63;8.05;;;;;;;;;;5064736;28;20429;-86
2022/12/25 11:00:19;;;;;;;11.13;7.55;;;;;;;;;;5069857;28;20044;-83
2022/12/25 11:02:45;;;;;;;7.47;5.55;;;;;;;;;;5041511;28;20021;-86
2022/12/25 11:05:20;;;;;;;9.65;6.10;;;;;;;;;;5053616;28;20025;-83
2022/12/25 11:10:32;;;;;;;12.20;8.43;;;;;;;;;;5055290;28;20036;-85
2022/12/25 11:12:58;;;;;;;12.18;10.50;;;;;;;;;;5054931;28;20052;-83
2022/12/25 11:15:43;;;;;;;14.02;8.45;;;;;;;;;;5054811;28;20059;-84
2022/12/25 11:18:20;;;;;;;7.28;5.47;;;;;;;;;;5056015;28;20461;-82
2022/12/25 11:21:05;;;;;;;8.13;5.53;;;;;;;;;;5054762;28;20021;-81
2022/12/25 11:23:32;;;;;;;9.27;7.03;;;;;;;;;;5054669;28;20051;-87
2022/12/25 11:26:00;;;;;;;15.23;9.95;;;;;;;;;;5036897;28;20029;-84
2022/12/25 11:28:27;;;;;;;8.63;5.95;;;;;;;;;;5054779;28;20049;-83
2022/12/25 11:30:58;;;;;;;9.82;7.45;;;;;;;;;;5054556;28;20017;-82
2022/12/25 11:33:28;;;;;;;7.35;4.20;;;;;;;;;;5054536;28;20033;-82
2022/12/25 11:35:55;;;;;;;7.35;4.72;;;;;;;;;;5054571;28;20033;-87
2022/12/25 11:38:22;;;;;;;10.65;8.30;;;;;;;;;;5059478;28;20119;-85
2022/12/25 11:40:50;;;;;;;9.18;6.70;;;;;;;;;;5042565;28;20113;-84
2022/12/25 11:43:19;;;;;;;9.73;6.20;;;;;;;;;;5063487;28;20099;-83
2022/12/25 11:45:53;;;;;;;7.63;6.10;;;;;;;;;;5064648;28;20020;-83
2022/12/25 11:48:21;;;;;;;9.32;6.55;;;;;;;;;;5064014;28;20051;-82
2022/12/25 11:50:49;;;;;;;13.32;10.45;;;;;;;;;;5062743;28;20048;-83
2022/12/25 11:53:24;;;;;;;18.48;11.68;;;;;;;;;;5063704;28;20016;-82
2022/12/25 11:55:54;;;;;;;5.63;3.85;;;;;;;;;;5054631;28;20349;-83
2022/12/25 11:58:23;;;;;;;6.88;4.15;;;;;;;;;;5054317;28;20395;-84
2022/12/25 12:00:51;;;;;;;8.30;4.72;;;;;;;;;;5053933;28;20477;-82
2022/12/25 12:03:36;;;;;;;26.58;15.98;;;;;;;;;;5054114;28;20013;-81
2022/12/25 12:06:02;;;;;;;;;;;;;;;;;;5054755;28;20028;-82
2022/12/25 12:08:28;;;;;;;7.82;4.82;;;;;;;;;;5054501;28;19904;-83
2022/12/25 12:11:14;;;;;;;9.88;5.43;;;;;;;;;;5054052;28;20021;-84
2022/12/25 12:13:40;;;;;;;9.38;6.95;;;;;;;;;;5053452;28;20053;-83
2022/12/25 12:16:07;;;;;;;8.70;5.85;;;;;;;;;;5053832;28;20028;-82
2022/12/25 12:18:34;;;;;;;6.93;4.03;;;;;;;;;;5035819;28;20028;-82
2022/12/25 12:21:03;;;;;;;6.80;3.75;;;;;;;;;;5053795;28;20025;-85
2022/12/25 12:23:30;;;;;;;6.40;4.10;;;;;;;;;;5053561;28;20021;-82
2022/12/25 12:25:57;;;;;;;10.10;3.45;;;;;;;;;;5036000;28;20082;-82
2022/12/25 12:28:25;;;;;;;8.02;4.82;;;;;;;;;;5073584;28;20452;-83
2022/12/25 12:31:10;;;;;;;6.97;5.05;;;;;;;;;;5074230;28;20117;-84
2022/12/25 12:33:36;;;;;;;;;;;;;;;;;;5073773;28;20033;-82
2022/12/25 12:36:02;;;;;;;5.88;3.47;;;;;;;;;;5055800;28;20281;-80
2022/12/25 12:38:29;;;;;;;6.70;4.88;;;;;;;;;;5073552;28;20024;-83
2022/12/25 12:40:57;;;;;;;7.68;4.78;;;;;;;;;;5073662;28;20111;-80
2022/12/25 12:43:32;;;;;;;16.60;10.18;;;;;;;;;;5074976;28;20016;-80
2022/12/25 12:46:03;;;;;;;14.90;9.48;;;;;;;;;;5073186;28;20468;-83
2022/12/25 12:48:29;;;;;;;11.55;6.30;;;;;;;;;;5072991;28;20080;-85
2022/12/25 12:51:03;;;;;;;7.05;4.47;;;;;;;;;;5047944;28;20023;-85
2022/12/25 12:53:31;;;;;;;11.68;5.85;;;;;;;;;;5046507;28;20043;-81
2022/12/25 12:56:07;;;;;;;10.80;7.03;;;;;;;;;;5065039;28;20467;-83
2022/12/25 12:58:35;;;;;;;7.35;5.55;;;;;;;;;;5064250;28;20067;-80
2022/12/25 13:01:20;;;;;;;7.97;5.00;;;;;;;;;;5071507;28;20483;-84
2022/12/25 13:04:04;;;;;;;9.95;5.53;;;;;;;;;;5058222;28;20016;-83
2022/12/25 13:06:43;;;;;;;6.75;4.82;;;;;;;;;;5068550;28;20039;-84
2022/12/25 13:09:15;;;;;;;11.18;7.07;;;;;;;;;;5054344;28;20036;-83
2022/12/25 13:11:42;;;;;;;8.25;4.88;;;;;;;;;;5054726;28;20033;-84
2022/12/25 13:14:14;;;;;;;8.40;5.05;;;;;;;;;;5072331;28;20028;-83
2022/12/25 13:16:42;;;;;;;6.03;4.47;;;;;;;;;;5054671;28;20064;-83
2022/12/25 13:19:28;;;;;;;9.50;5.22;;;;;;;;;;5072570;28;20021;-84
2022/12/25 13:21:55;;;;;;;7.38;4.97;;;;;;;;;;5072470;28;20046;-82
2022/12/25 13:24:23;;;;;;;13.40;6.03;;;;;;;;;;5072801;28;20024;-80
2022/12/25 13:26:49;;;;;;;12.98;8.85;;;;;;;;;;5054614;28;20024;-83
2022/12/25 13:29:21;;;;;;;14.40;9.90;;;;;;;;;;5053970;28;20391;-83
2022/12/25 13:31:48;;;;;;;15.73;10.30;;;;;;;;;;5072388;28;20100;-83
2022/12/25 13:34:22;;;;;;;13.50;7.05;;;;;;;;;;5054709;28;20039;-81
2022/12/25 13:36:48;;;;;;;8.60;4.60;;;;;;;;;;5054347;28;20029;-85
2022/12/25 13:39:16;;;;;;;12.55;7.97;;;;;;;;;;5072653;28;20056;-83
2022/12/25 13:44:30;;;;;;;7.93;5.45;;;;;;;;;;5072752;28;20119;-82
2022/12/25 13:47:07;;;;;;;7.20;5.30;;;;;;;;;;5072496;28;20025;-82
2022/12/25 13:49:36;;;;;;;8.20;4.63;;;;;;;;;;5066411;28;20117;-83
2022/12/25 13:52:20;;;;;;;7.93;4.70;;;;;;;;;;5071287;28;20365;-83
2022/12/25 13:54:53;;;;;;;8.40;5.00;;;;;;;;;;5072385;28;20487;-81
2022/12/25 13:57:21;;;;;;;11.00;5.05;;;;;;;;;;5072383;28;20079;-84
2022/12/25 13:59:47;;;;;;;10.48;6.63;;;;;;;;;;5072312;28;20031;-83
2022/12/25 14:02:22;;;;;;;9.88;6.28;;;;;;;;;;5071091;28;20025;-85
2022/12/25 14:04:48;;;;;;;10.27;7.45;;;;;;;;;;5070985;28;20468;-83
2022/12/25 14:07:18;;;;;;;11.10;7.57;;;;;;;;;;5072309;28;20032;-82
2022/12/25 14:09:44;;;;;;;16.67;10.48;;;;;;;;;;5070575;28;20024;-82
2022/12/25 14:12:10;;;;;;;15.95;8.90;;;;;;;;;;5070805;28;20060;-82
2022/12/25 14:14:36;;;;;;;14.77;9.45;;;;;;;;;;5070836;28;20373;-81
2022/12/25 14:17:03;;;;;;;15.10;10.13;;;;;;;;;;5071938;28;20112;-80
2022/12/25 14:19:33;;;;;;;19.02;11.93;;;;;;;;;;5070928;28;20074;-83
2022/12/25 14:22:00;;;;;;;24.55;15.07;;;;;;;;;;5071608;28;20032;-83
2022/12/25 14:24:27;;;;;;;40.60;25.13;;;;;;;;;;5071930;28;20024;-84
2022/12/25 14:26:58;;;;;;;27.55;17.30;;;;;;;;;;5071764;28;20016;-83
2022/12/25 14:29:24;;;;;;;16.30;13.52;;;;;;;;;;5070654;28;20533;-84
2022/12/25 14:31:50;;;;;;;16.77;12.43;;;;;;;;;;5070431;28;20491;-83
2022/12/25 14:34:35;;;;;;;19.42;13.95;;;;;;;;;;5071844;28;20031;-83
2022/12/25 14:37:01;;;;;;;;;;;;;;;;;;5072155;28;20083;-83
2022/12/25 14:39:31;;;;;;;19.27;12.30;;;;;;;;;;5072815;28;20359;-83
2022/12/25 14:41:57;;;;;;;18.50;13.02;;;;;;;;;;5075416;28;20025;-83
2022/12/25 14:44:29;;;;;;;22.80;16.67;;;;;;;;;;5072300;28;20056;-83
2022/12/25 14:47:05;;;;;;;61.95;44.67;;;;;;;;;;5059327;28;20021;-83
2022/12/25 14:49:31;;;;;;;67.43;49.70;;;;;;;;;;5062000;28;20052;-83
2022/12/25 14:51:57;;;;;;;37.03;25.95;;;;;;;;;;5069248;28;21033;-85
2022/12/25 14:54:24;;;;;;;27.60;21.10;;;;;;;;;;5067925;28;20036;-84
2022/12/25 14:56:52;;;;;;;29.92;22.27;;;;;;;;;;5064641;28;20033;-84
2022/12/25 14:59:20;;;;;;;28.27;21.95;;;;;;;;;;5055044;28;20476;-85
2022/12/25 15:01:51;;;;;;;24.50;16.85;;;;;;;;;;5055066;28;20458;-82
2022/12/25 15:04:19;;;;;;;24.15;17.92;;;;;;;;;;5055109;28;20069;-84
2022/12/25 15:06:54;;;;;;;24.30;19.08;;;;;;;;;;5059945;28;20043;-84
2022/12/25 15:09:21;;;;;;;32.00;21.67;;;;;;;;;;5065287;28;20032;-84
2022/12/25 15:11:54;;;;;;;34.05;24.35;;;;;;;;;;5054863;28;20029;-84
2022/12/25 15:14:21;;;;;;;35.97;27.08;;;;;;;;;;5054670;28;20029;-81
2022/12/25 15:16:52;;;;;;;33.17;24.58;;;;;;;;;;5053522;28;20040;-83
2022/12/25 15:19:26;;;;;;;35.13;26.77;;;;;;;;;;5057393;28;20036;-82
2022/12/25 15:21:52;;;;;;;37.33;28.00;;;;;;;;;;5064773;28;20112;-84
2022/12/25 15:24:18;;;;;;;45.97;32.75;;;;;;;;;;5064080;28;20070;-84
2022/12/25 15:26:44;;;;;;;51.08;36.97;;;;;;;;;;5065474;28;20372;-83
2022/12/25 15:29:10;;;;;;;63.45;44.20;;;;;;;;;;5068936;28;20095;-82
2022/12/25 15:31:37;;;;;;;40.83;31.58;;;;;;;;;;5058450;28;20028;-82
2022/12/25 15:34:07;;;;;;;37.15;29.45;;;;;;;;;;5039412;28;20037;-84
2022/12/25 15:36:33;;;;;;;33.40;25.80;;;;;;;;;;5058851;28;20055;-84
2022/12/25 15:38:59;;;;;;;26.08;19.65;;;;;;;;;;5065604;28;20031;-85
2022/12/25 15:44:19;;;;;;;27.13;20.65;;;;;;;;;;5055260;28;20040;-82
2022/12/25 15:46:46;;;;;;;87.00;66.43;;;;;;;;;;5066853;28;20545;-83
2022/12/25 15:49:13;;;;;;;102.55;79.07;;;;;;;;;;5066634;28;20074;-84
2022/12/25 15:51:39;;;;;;;103.28;80.13;;;;;;;;;;5058648;28;20405;-81
2022/12/25 15:54:05;;;;;;;123.60;96.93;;;;;;;;;;5071854;28;20403;-82
2022/12/25 15:56:47;;;;;;;77.97;63.70;;;;;;;;;;5078453;28;20028;-81
2022/12/25 15:59:14;;;;;;;70.10;55.55;;;;;;;;;;5093735;28;20407;-84
2022/12/25 16:01:59;;;;;;;66.53;49.38;;;;;;;;;;5094088;28;20093;-83
2022/12/25 16:04:26;;;;;;;51.60;39.08;;;;;;;;;;5075978;28;20111;-83
2022/12/25 16:06:53;;;;;;;54.17;42.05;;;;;;;;;;5093937;28;20016;-83
2022/12/25 16:09:20;;;;;;;45.58;35.28;;;;;;;;;;5078154;28;20029;-85
2022/12/25 16:11:46;;;;;;;42.83;31.65;;;;;;;;;;5066515;28;20498;-82
2022/12/25 16:14:12;;;;;;;37.33;27.00;;;;;;;;;;5072948;28;20033;-82
2022/12/25 16:16:38;;;;;;;38.95;27.48;;;;;;;;;;5081876;28;20047;-83
2022/12/25 16:19:05;;;;;;;35.70;27.20;;;;;;;;;;5073517;28;20029;-82
2022/12/25 16:21:36;;;;;;;42.97;29.08;;;;;;;;;;5073504;28;20099;-85
2022/12/25 16:24:03;;;;;;;48.47;37.55;;;;;;;;;;5055106;28;20036;-83
2022/12/25 16:26:29;;;;;;;53.78;41.13;;;;;;;;;;5092339;28;20043;-82
2022/12/25 16:28:56;;;;;;;75.05;53.45;;;;;;;;;;5073602;28;20051;-83
2022/12/25 16:31:22;;;;;;;69.93;49.67;;;;;;;;;;5054844;28;20383;-83
2022/12/25 16:33:48;;;;;;;62.90;47.45;;;;;;;;;;5073268;28;20021;-85
2022/12/25 16:36:14;;;;;;;47.95;36.05;;;;;;;;;;5072935;28;20025;-82